Blue Oak Ranch Reserve, California Weather observations

Data are for 10 minute period ending at time listed.
 Day   Time   Solar   Ave.   Ave.  Ave.  Vector  Max.   Baro.   Total    
  of    of     Rad.   Air    Rel.  Wind   Wind   Wind  Press.  Precip.   
Year   Day            Temp.  Hum.  Speed  Dir.   Gust                    
2016   (PST)  Kw/m2    F      %     mph   deg.    mph    mb.     in.     
-------------------------------------------------------------------------
 238   11:40   0.85   76.3    44    5.6   247    10.4   947.0    0.00 
 238   11:50   0.86   75.5    46    6.1   241    10.5   947.1    0.00 
 238   12:00   0.86   75.5    46    5.3   242    10.7   947.1    0.00 
 238   12:10   0.86   75.4    46    5.7   236    10.5   947.1    0.00 
 238   12:20   0.86   75.8    44    4.7   244     9.3   947.0    0.00 
 238   12:30   0.86   75.7    43    5.9   217     9.1   947.0    0.00 
 238   12:40   0.86   76.6    42    4.8   248     8.9   946.9    0.00 
 238   12:50   0.85   78.1    40    5.0   254     8.9   946.8    0.00 
 238   13:00   0.82   79.4    38    3.8   257     7.5   946.7    0.00 
 238   13:10   0.84   80.2    36    4.6   239     9.2   946.6    0.00 
 238   13:20   0.83   79.9    37    6.0   253     9.0   946.4    0.00 
 238   13:30   0.82   79.8    38    5.1   245     8.9   946.3    0.00 
 238   13:40   0.81   79.8    39    5.2   255     8.9   946.2    0.00 
 238   13:50   0.80   79.7    39    5.2   252     9.0   946.1    0.00 
 238   14:00   0.78   79.4    39    5.3   250     9.1   946.0    0.00 
 238   14:10   0.77   80.0    38    5.2   270     8.8   945.9    0.00 
 238   14:20   0.75   81.2    36    4.8   260     7.9   945.8    0.00 
 238   14:30   0.73   80.6    37    5.0   240     8.7   945.7    0.00 
 238   14:40   0.70   80.7    37    5.8   254     9.6   945.6    0.00 
 238   14:50   0.68   81.2    36    4.9   270     8.8   945.5    0.00 
 238   15:00   0.66   81.4    36    4.7   259     8.9   945.5    0.00 
 238   15:10   0.63   81.8    36    5.6   269    10.4   945.4    0.00 
 238   15:20   0.61   80.9    37    4.5   266    10.1   945.4    0.00 
 238   15:30   0.58   81.3    36    4.6   264     9.7   945.3    0.00 
 238   15:40   0.55   80.3    39    5.4   268     9.3   945.2    0.00 
 238   15:50   0.52   79.3    41    4.6   269     7.9   945.3    0.00 
 238   16:00   0.49   79.1    41    3.8   261     7.0   945.2    0.00 
 238   16:10   0.46   79.0    42    3.2   272     7.8   945.2    0.00 
 238   16:20   0.43   77.6    45    4.5   264     7.5   945.2    0.00 
 238   16:30   0.39   76.9    46    5.6   240     8.3   945.3    0.00 
 238   16:40   0.36   75.9    47    4.7   236     7.9   945.3    0.00 
 238   16:50   0.33   75.9    48    3.8   269     7.0   945.3    0.00 
 238   17:00   0.29   76.3    47    3.5   238     5.6   945.3    0.00 
 238   17:10   0.26   75.3    49    3.7   239     6.7   945.3    0.00 
 238   17:20   0.23   74.5    50    3.0   247     6.9   945.3    0.00 
 238   17:30   0.20   74.5    50    3.3   245     5.3   945.2    0.00 
 238   17:40   0.16   73.7    51    3.1   262     4.9   945.3    0.00 
 238   17:50   0.14   72.6    53    2.9   245     5.0   945.3    0.00 
 238   18:00   0.11   71.5    55    2.3   234     3.8   945.3    0.00 
 238   18:10   0.08   71.5    54    1.5   264     2.7   945.3    0.00 
 238   18:20   0.06   71.3    55    1.4   247     2.6   945.3    0.00 
 238   18:30   0.03   69.8    58    1.4   266     2.7   945.3    0.00 
 238   18:40   0.01   67.4    62    1.2   273     2.5   945.3    0.00 
 238   18:50   0.01   65.2    65    0.7   257     1.8   945.2    0.00 
 238   19:00   0.00   63.6    68    1.2   274     1.7   945.0    0.00 
 238   19:10   0.00   62.4    70    0.5   290     1.5   944.9    0.00 
 238   19:20   0.00   61.2    71    0.5    27     1.9   944.8    0.00 
 238   19:30   0.00   60.3    73    0.3    77     1.6   944.9    0.00 
 238   19:40   0.00   59.6    74    0.5    80     1.7   945.0    0.00 
 238   19:50   0.00   59.5    75    0.8    74     3.4   945.1    0.00 
 238   20:00   0.00   60.0    76    1.0    81     2.1   945.2    0.00 
 238   20:10   0.00   59.7    75    0.6   102     2.0   945.3    0.00 
 238   20:20   0.00   59.1    76    0.2   158     1.2   945.4    0.00 
 238   20:30   0.00   58.3    77    0.0     0     0.0   945.4    0.00 
 238   20:40   0.00   57.9    78    0.1   328     1.5   945.5    0.00 
 238   20:50   0.00   57.3    79    0.0     0     0.0   945.6    0.00 
 238   21:00   0.00   56.4    80    0.0     0     0.0   945.6    0.00 
 238   21:10   0.00   55.4    82    0.0   226     0.1   945.5    0.00 
 238   21:20   0.00   54.7    83    0.1    56     1.0   945.5    0.00 
 238   21:30   0.00   54.1    83    0.2   349     1.8   945.7    0.00 
 238   21:40   0.00   54.2    84    1.4    29     2.5   945.7    0.00 
 238   21:50   0.00   53.7    84    0.2    53     1.5   945.7    0.00 
 238   22:00   0.00   52.9    86    0.2    18     1.3   945.6    0.00 
 238   22:10   0.00   52.7    87    1.3   278     2.6   945.6    0.00 
 238   22:20   0.00   53.2    88    0.3    48     1.6   945.6    0.00 
 238   22:30   0.00   52.9    89    1.1    79     2.6   945.6    0.00 
 238   22:40   0.00   52.8    88    0.2    87     1.5   945.6    0.00 
 238   22:50   0.00   51.9    88    0.1    11     0.9   945.6    0.00 
 238   23:00   0.00   51.8    89    0.1    10     0.9   945.6    0.00 
 238   23:10   0.00   51.0    89    0.3   104     0.9   945.5    0.00 
 238   23:20   0.00   50.4    89    0.3     7     1.2   945.4    0.00 
 238   23:30   0.00   49.8    89    0.0     0     0.0   945.3    0.00 
 238   23:40   0.00   49.2    89    1.2    83     2.0   945.4    0.00 
 238   23:50   0.00   48.7    89    0.9    76     1.9   945.3    0.00 
 239    0:00   0.00   48.2    89    1.0   144     1.7   945.4    0.00 
 239    0:10   0.00   48.7    91    0.0   156     0.6   945.4    0.00 
 239    0:20   0.00   48.2    89    0.0     0     0.0   945.4    0.00 
 239    0:30   0.00   47.6    90    0.1    22     0.9   945.3    0.00 
 239    0:40   0.00   47.3    90    0.0     0     0.0   945.1    0.00 
 239    0:50   0.00   47.2    90    0.0     0     0.0   945.0    0.00 
 239    1:00   0.00   47.3    91    0.1    38     1.1   945.0    0.00 
 239    1:10   0.00   47.1    90    0.7    68     1.6   944.9    0.00 
 239    1:20   0.00   47.2    88    0.6   311     1.8   944.9    0.00 
 239    1:30   0.00   47.2    87    1.0   302     2.4   944.9    0.00 
 239    1:40   0.00   47.1    80    0.0    79     0.6   944.9    0.00 
 239    1:50   0.00   47.6    70    0.0    51     0.8   944.9    0.00 
 239    2:00   0.00   48.4    64    0.0    50     0.9   944.8    0.00 
 239    2:10   0.00   48.8    62    0.0     0     0.0   944.7    0.00 
 239    2:20   0.00   49.3    58    0.3   236     1.4   944.8    0.00 
 239    2:30   0.00   49.7    56    0.7   341     1.9   944.9    0.00 
 239    2:40   0.00   50.4    55    0.2   286     1.8   945.0    0.00 
 239    2:50   0.00   51.6    67    0.0     1     0.9   945.1    0.00 
 239    3:00   0.00   49.9    68    0.1    31     0.7   945.0    0.00 
 239    3:10   0.00   49.0    70    0.0     0     0.0   945.0    0.00 
 239    3:20   0.00   47.5    70    2.2   129     4.0   945.0    0.00 
 239    3:30   0.00   48.0    89    1.7    91     2.9   945.1    0.00 
 239    3:40   0.00   46.9    86    2.0   168     3.4   945.1    0.00 
 239    3:50   0.00   46.6    91    0.5   199     1.9   945.2    0.00 
 239    4:00   0.00   47.2    94    0.6    31     1.6   945.2    0.00 
 239    4:10   0.00   46.8    95    0.4    59     1.1   945.1    0.00 
 239    4:20   0.00   46.5    95    1.5    49     2.7   945.1    0.00 
 239    4:30   0.00   47.0    96    1.1    56     3.2   945.2    0.00 
 239    4:40   0.00   47.2    96    0.9    25     2.3   945.2    0.00 
 239    4:50   0.00   47.4    96    1.1    46     3.0   945.3    0.00 
 239    5:00   0.00   47.3    96    2.4    60     4.9   945.3    0.00 
 239    5:10   0.00   47.8    96    0.9    63     3.5   945.2    0.00 
 239    5:20   0.00   47.8    96    0.8    22     2.2   945.2    0.00 
 239    5:30   0.00   47.6    96    1.1   259     3.4   945.4    0.00 
 239    5:40   0.01   47.7    96    1.3    19     2.6   945.6    0.00 
 239    5:50   0.01   48.0    96    0.8    32     3.1   945.6    0.00 
 239    6:00   0.02   48.0    96    0.4    66     1.7   945.6    0.00 
 239    6:10   0.03   48.1    96    0.8   305     2.1   945.8    0.00 
 239    6:20   0.04   48.4    96    0.5   267     2.7   945.8    0.00 
 239    6:30   0.06   48.9    96    1.1   308     2.3   945.9    0.00 
 239    6:40   0.09   49.4    96    1.1   315     2.9   946.0    0.00 
 239    6:50   0.15   50.6    95    1.8   259     3.7   946.1    0.00 
 239    7:00   0.17   52.2    92    0.6     5     2.0   946.1    0.00 
 239    7:10   0.21   53.5    87    0.8   150     2.2   946.1    0.00 
 239    7:20   0.23   55.0    81    0.5   132     1.9   946.0    0.00 
 239    7:30   0.27   55.6    77    1.6   137     2.8   946.0    0.00 
 239    7:40   0.30   56.6    76    1.9   139     3.1   946.0    0.00 
 239    7:50   0.33   56.8    76    3.1   182     6.1   946.1    0.00 
 239    8:00   0.36   56.3    80    4.4   146     7.2   946.2    0.00 
 239    8:10   0.38   55.4    83    4.8   157     7.2   946.2    0.00 
 239    8:20   0.42   56.2    80    4.3   142     7.0   946.2    0.00 
 239    8:30   0.46   56.9    79    4.0   136     6.5   946.3    0.00 
 239    8:40   0.48   57.7    77    3.6   133     6.0   946.4    0.00 
 239    8:50   0.52   58.6    75    4.1   150     6.5   946.4    0.00 
 239    9:00   0.55   59.5    74    3.4   139     6.2   946.5    0.00 
 239    9:10   0.58   60.6    71    4.2   137     6.1   946.6    0.00 
 239    9:20   0.61   60.8    71    4.0   140     6.4   946.7    0.00 
 239    9:30   0.64   62.7    67    3.4   140     6.1   946.9    0.00 
 239    9:40   0.66   63.4    67    4.0   133     6.0   947.0    0.00 
 239    9:50   0.68   64.0    66    4.0   136     6.9   947.0    0.00 
 239   10:00   0.70   65.2    63    4.2   137     7.2   947.1    0.00 
 239   10:10   0.72   66.4    60    4.4   138     7.2   947.3    0.00 
 239   10:20   0.74   67.2    57    4.8   127     7.2   947.4    0.00 
 239   10:30   0.76   68.7    51    4.5   167     9.0   947.4    0.00 
 239   10:40   0.77   70.9    46    4.5   190     8.6   947.4    0.00 
 239   10:50   0.77   72.1    45    4.2   164     7.5   947.4    0.00 
 239   11:00   0.77   71.5    47    4.5   137     6.6   947.4    0.00 
 239   11:10   0.79   72.2    50    4.1   213     8.0   947.5    0.00 
 239   11:20   0.81   73.8    49    4.3   235     8.7   947.5    0.00 
 239   11:30   0.82   74.1    48    3.7   233     7.7   947.5    0.00 

Return to Blue Oak Ranch Reserve graphs page.


Western Regional Climate Center,wrcc@dri.edu